Hauptseite
METAR-TAF:

METAR-TAF

Flughäfen :

Magdalenen-Inseln, Québec, Kanada

Breite: 47-25N, Länge: 061-47W, Höhe: 10 m

Beobachtung

Neuester Wetterbericht von vor 16 Minuten, um 02:00 UTC
Wind 15 kt aus West/Nordwest, Böen bis zu 21 kt
Temperatur 1°C
Luftfeuchtigkeit 80%
Luftdruck 1016 hPa
Sichtweite: 24.1 km
Durchbrochene Bewölkung in der Höhe von 3800 ft

METAR: CYGR 160200Z 29015G21KT 15SM BKN038 01/M02 A3000 RMK SC7 SLP161

Zeit: 21:16 (02:16 UTC)

Prognose

Neuester Wetterbericht von vor 6 Stunden und 38 Minuten, um 19:38 UTC
Gültige Prognose vom 15 um 20 UTC bis 16 um 03 UTC
Wind 15 kt aus West/Nordwest, Böen bis zu 25 kt
Sichtweite: 10 km
Leicht bewölkt in der Höhe von 4000 ft
Zeitweise
vom 15 um 20 UTC bis 15 um 23 UTC
Durchbrochene Bewölkung in der Höhe von 4000 ft

TAF: CYGR 151938Z 1520/1603 30015G25KT P6SM FEW040 TEMPO 1520/1523 BKN040 RMK NXT FCST WILL BE ISSUED AT 161145Z

Wetterbeobachtungen und Prognosen von mehr als 4000 Flughäfen (METAR und TAF Bericht).

Die verfügbaren Stationen werden durch gelbe und rote Markierungen auf der Karte dargestellt.

Führen Sie die Maus auf sie, um den Namen der Station zu sehen.

Darauf klicken, um die Beobachtung von Wetterbeobachtungen und Prognosen zu sehen.

Um die Karte zu ändern : klicken Sie auf den grünen Tasten mit einem schwarzen Kreuz Zum Vergrößern, auf den grünen Button mit einem Gedankenstrich zu verkleinern, oder auf die grünen Pfeile für benachbarte Karten.


METAR-TAF: